Xavier Cenac — WDI6829 — position and weather

sailwx.info

Track history (hours):
 
Tides and Currents Weather Stations Pressure Air Temp Water Temp Dewpoint Dewpoint Depression Visibility Wind Speed Wind Dir Waves Ship Positions

Xavier Cenac

Owner: Cenac Marine Services LLC, Houma, LA. More information available from US FCC via Universal Licensing System and Coast Guard Vessel Documentation Center.

Last reported at 2018-Feb-20 12:15 UTC. Time now 2018-Feb-20 13:41 UTC.
Position N 29°52' W 092°23'.

Length 23 m; draft 8.6 m.

Type: Tug. MMSI: 367722660.

Date/timePositionNaut miles runAvg speedWind from/ knotsBaromVisibWave heightAir tempDewpointWater temp
2018-Feb-20 12:15N 29°52' W 092°23'2 6.4
2018-Feb-20 12:00N 29°51' W 092°22'3 6.3
2018-Feb-20 11:30N 29°50' W 092°18'2 5.0
2018-Feb-20 11:00N 29°49' W 092°16'3 5.3
2018-Feb-20 10:30N 29°47' W 092°13'2 4.9
2018-Feb-20 10:00N 29°47' W 092°11'2 3.7
2018-Feb-20 09:30N 29°47' W 092°08'3 6.6
2018-Feb-20 09:00N 29°48' W 092°05'3 6.9
2018-Feb-20 08:30N 29°49' W 092°01'  
2018-Feb-16 17:22N 29°50' W 091°58'2 4.9
2018-Feb-16 17:00N 29°50' W 091°60'3 5.4
2018-Feb-16 16:30N 29°49' W 092°03'3 5.3
2018-Feb-16 16:00N 29°48' W 092°06'3 5.4
2018-Feb-16 15:30N 29°47' W 092°09'3 6.0
2018-Feb-16 15:00N 29°47' W 092°12'1 2.8
2018-Feb-16 14:30N 29°48' W 092°14'2 4.5
2018-Feb-16 14:00N 29°49' W 092°16'3 5.3
2018-Feb-16 13:29N 29°50' W 092°18'40 4.8
2018-Feb-16 05:10N 29°56' W 093°04'1 1.2
2018-Feb-16 04:08N 29°56' W 093°06'0 0.0
2018-Feb-16 03:59N 29°56' W 093°06'0 0.0
2018-Feb-16 03:29N 29°56' W 093°06'0 0.3
2018-Feb-16 02:41N 29°56' W 093°06'1 2.8
2018-Feb-16 02:26N 29°56' W 093°07'2 4.8
2018-Feb-16 02:00N 29°56' W 093°09'2 4.8
2018-Feb-16 01:30N 29°58' W 093°11'2 5.0
2018-Feb-16 01:00N 29°60' W 093°13'2 4.4
2018-Feb-16 00:29N 30°02' W 093°14'2 4.3
2018-Feb-16 00:00N 30°03' W 093°16'2 5.0
2018-Feb-15 23:30N 30°05' W 093°17'2 3.1
2018-Feb-15 23:00N 30°06' W 093°19'3 5.4
2018-Feb-15 22:30N 30°04' W 093°21'2 4.6
2018-Feb-15 22:00N 30°04' W 093°24'3 5.5
2018-Feb-15 21:30N 30°04' W 093°27'2 4.9
2018-Feb-15 21:00N 30°04' W 093°30'3 5.4
2018-Feb-15 20:26N 30°04' W 093°34'2 4.3
2018-Feb-15 20:00N 30°04' W 093°36'3 5.6
2018-Feb-15 19:30N 30°04' W 093°39'3 5.8
2018-Feb-15 19:00N 30°03' W 093°42'3 5.1
2018-Feb-15 18:29N 30°02' W 093°44'3 5.5
2018-Feb-15 18:00N 29°60' W 093°47'2 4.4
2018-Feb-15 17:30N 29°59' W 093°49'2 4.1
2018-Feb-15 17:00N 29°58' W 093°51'2 4.2
2018-Feb-15 16:30N 29°59' W 093°53'3 6.4
2018-Feb-15 16:00N 29°60' W 093°57'1 2.9
2018-Feb-15 15:30N 30°01' W 093°58'1 1.6
2018-Feb-15 15:00N 30°01' W 093°59'0 0.0
2018-Feb-15 14:30N 30°01' W 093°59'0 0.0
2018-Feb-15 14:00N 30°01' W 093°59'0 0.0
2018-Feb-15 13:30N 30°01' W 093°59'0 0.0
2018-Feb-15 13:00N 30°01' W 093°59'0 0.0
2018-Feb-15 12:30N 30°01' W 093°59'0 0.0
2018-Feb-15 12:00N 30°01' W 093°59'0 0.0
2018-Feb-15 11:30N 30°01' W 093°59'0 0.0
2018-Feb-15 11:00N 30°01' W 093°59'0 0.0
2018-Feb-15 10:30N 30°01' W 093°59'0 0.0
2018-Feb-15 10:00N 30°01' W 093°59'0 0.0
2018-Feb-15 09:30N 30°01' W 093°59'0 0.0
2018-Feb-15 09:00N 30°01' W 093°59'0 0.0
2018-Feb-15 08:30N 30°01' W 093°59'0 0.0
2018-Feb-15 08:00N 30°01' W 093°59'0 0.0
2018-Feb-15 07:30N 30°01' W 093°59'0 0.0
2018-Feb-15 07:00N 30°01' W 093°59'0 0.0
2018-Feb-15 06:30N 30°01' W 093°59'0 0.0
2018-Feb-15 06:00N 30°01' W 093°59'0 0.0
2018-Feb-15 05:30N 30°01' W 093°59'0 0.0
2018-Feb-15 05:00N 30°01' W 093°59'0 0.0
2018-Feb-15 04:30N 30°01' W 093°59'0 0.0
2018-Feb-15 04:00N 30°01' W 093°59'0 0.0
2018-Feb-15 03:30N 30°01' W 093°59'0 0.0
2018-Feb-15 03:00N 30°01' W 093°59'0 0.0
2018-Feb-15 02:30N 30°01' W 093°59'0 0.0
2018-Feb-15 02:00N 30°01' W 093°59'0 0.0
2018-Feb-15 01:30N 30°01' W 093°59'0 0.0
2018-Feb-15 01:00N 30°01' W 093°59'0 0.0
2018-Feb-15 00:30N 30°01' W 093°59'0 0.0
2018-Feb-15 00:00N 30°01' W 093°59'0 0.0
2018-Feb-14 23:30N 30°01' W 093°59'0 0.0
2018-Feb-14 23:00N 30°01' W 093°59'0 0.0
2018-Feb-14 22:30N 30°01' W 093°59'0 0.0
2018-Feb-14 22:00N 30°01' W 093°59'0 0.0
2018-Feb-14 21:30N 30°01' W 093°59'0 0.0
2018-Feb-14 21:00N 30°01' W 093°59'0 0.0
2018-Feb-14 20:30N 30°01' W 093°59'0 0.0
2018-Feb-14 20:00N 30°01' W 093°59'0 0.0
2018-Feb-14 19:30N 30°01' W 093°59'0 0.0
2018-Feb-14 19:00N 30°01' W 093°59'0 0.0
2018-Feb-14 18:30N 30°01' W 093°59'0 0.0
2018-Feb-14 18:00N 30°01' W 093°59'0 0.1
2018-Feb-14 17:30N 30°01' W 093°59'1 1.6
2018-Feb-14 17:00N 30°01' W 093°59'0 0.0
2018-Feb-14 16:30N 30°01' W 093°59'0 0.0
2018-Feb-14 16:00N 30°01' W 093°59'0 0.0
2018-Feb-14 15:30N 30°01' W 093°59'0 0.3
2018-Feb-14 15:00N 30°01' W 093°59'0 0.1
2018-Feb-14 14:30N 30°01' W 093°59'0 0.0
2018-Feb-14 14:00N 30°01' W 093°59'0 0.0
2018-Feb-14 13:30N 30°01' W 093°59'0 0.0
2018-Feb-14 13:00N 30°01' W 093°59'0 0.0
2018-Feb-14 12:30N 30°01' W 093°59'0 0.0
2018-Feb-14 12:00N 30°01' W 093°59'0 0.0
2018-Feb-14 11:30N 30°01' W 093°59'0 0.0
2018-Feb-14 11:00N 30°01' W 093°59'0 0.0
2018-Feb-14 10:30N 30°01' W 093°59'0 0.0
2018-Feb-14 10:00N 30°01' W 093°59'0 0.0
2018-Feb-14 09:30N 30°01' W 093°59'0 0.0
2018-Feb-14 09:00N 30°01' W 093°59'0 0.0
2018-Feb-14 08:30N 30°01' W 093°59'0 0.0
2018-Feb-14 08:00N 30°01' W 093°59'0 0.0
2018-Feb-14 07:30N 30°01' W 093°59'0 0.0
2018-Feb-14 07:00N 30°01' W 093°59'0 0.0
2018-Feb-14 06:30N 30°01' W 093°59'0 0.0
2018-Feb-14 06:00N 30°01' W 093°59'0 0.0
2018-Feb-14 05:30N 30°01' W 093°59'0 0.0
2018-Feb-14 05:00N 30°01' W 093°59'0 0.0
2018-Feb-14 04:30N 30°01' W 093°59'0 0.0
2018-Feb-14 04:00N 30°01' W 093°59'0 0.0
2018-Feb-14 03:30N 30°01' W 093°59'0 0.0
2018-Feb-14 03:00N 30°01' W 093°59'0 0.0
2018-Feb-14 02:30N 30°01' W 093°59'0 0.0
2018-Feb-14 02:00N 30°01' W 093°59'0 0.0
2018-Feb-14 01:30N 30°01' W 093°59'0 0.0
2018-Feb-14 01:00N 30°01' W 093°59'0 0.0
2018-Feb-14 00:30N 30°01' W 093°59'0 0.0
2018-Feb-14 00:00N 30°01' W 093°59'0 0.0
2018-Feb-13 23:30N 30°01' W 093°59'0 0.0
2018-Feb-13 23:00N 30°01' W 093°59'0 0.0
2018-Feb-13 22:30N 30°01' W 093°59'0 0.0
2018-Feb-13 22:00N 30°01' W 093°59'0 0.0
2018-Feb-13 21:30N 30°01' W 093°59'0 0.0
2018-Feb-13 21:00N 30°01' W 093°59'0 0.0
2018-Feb-13 20:30N 30°01' W 093°59'0 0.0
2018-Feb-13 20:00N 30°01' W 093°59'0 0.0
2018-Feb-13 19:30N 30°01' W 093°59'0 0.0
2018-Feb-13 19:00N 30°01' W 093°59'0 0.0
2018-Feb-13 18:30N 30°01' W 093°59'0 0.0
2018-Feb-13 18:00N 30°01' W 093°59'0 0.0
2018-Feb-13 17:30N 30°01' W 093°59'0 0.0
2018-Feb-13 17:00N 30°01' W 093°59'0 0.0
2018-Feb-13 16:30N 30°01' W 093°59'0 0.0
2018-Feb-13 16:00N 30°01' W 093°59'0 0.0
2018-Feb-13 15:30N 30°01' W 093°59'0 0.0
2018-Feb-13 14:59N 30°01' W 093°59'0 0.0
2018-Feb-13 14:30N 30°01' W 093°59'0 0.0
2018-Feb-13 14:00N 30°01' W 093°59'0 0.0
2018-Feb-13 13:30N 30°01' W 093°59'0 0.0
2018-Feb-13 13:00N 30°01' W 093°59'0 0.0
2018-Feb-13 12:30N 30°01' W 093°59'0 0.0
2018-Feb-13 12:00N 30°01' W 093°59'0 0.0
2018-Feb-13 11:30N 30°01' W 093°59'0 0.0
2018-Feb-13 11:00N 30°01' W 093°59'0 0.0
2018-Feb-13 10:30N 30°01' W 093°59'0 0.1
2018-Feb-13 10:00N 30°01' W 093°59'0 0.0
2018-Feb-13 09:30N 30°01' W 093°59'0 0.0
2018-Feb-13 09:00N 30°01' W 093°59'0 0.5
2018-Feb-13 08:30N 30°01' W 093°59'2 3.6
2018-Feb-13 08:00N 30°01' W 093°57'3 6.5
2018-Feb-13 07:30N 29°59' W 093°54'3 6.1
2018-Feb-13 07:00N 29°58' W 093°51'3 6.5
2018-Feb-13 06:30N 29°60' W 093°47'1 2.9
2018-Feb-13 06:00N 30°00' W 093°46'0 0.4
2018-Feb-13 05:30N 30°00' W 093°46'0 0.2
2018-Feb-13 05:00N 30°00' W 093°46'3 6.9
2018-Feb-13 04:30N 30°03' W 093°44'3 6.2
2018-Feb-13 03:59N 30°04' W 093°40'4 7.8
2018-Feb-13 03:30N 30°04' W 093°36'4 7.1
2018-Feb-13 03:00N 30°04' W 093°31'3 6.2
2018-Feb-13 02:30N 30°04' W 093°28'4 7.3
2018-Feb-13 02:00N 30°04' W 093°24'3 5.2
2018-Feb-13 01:30N 30°04' W 093°21'3 5.6
2018-Feb-13 01:00N 30°06' W 093°18'2 3.3
2018-Feb-13 00:30N 30°05' W 093°17'0 0.1
2018-Feb-13 00:00N 30°05' W 093°17'0 0.0
2018-Feb-12 23:29N 30°05' W 093°17'0 0.0
2018-Feb-12 23:00N 30°05' W 093°17'0 0.7
2018-Feb-12 22:30N 30°04' W 093°16'3 6.4
2018-Feb-12 22:00N 30°02' W 093°15'4 6.9
2018-Feb-12 21:29N 29°59' W 093°12'4 6.6
2018-Feb-12 20:54N 29°56' W 093°09'41 6.4
2018-Feb-12 14:26N 29°51' W 092°22'3 5.9
2018-Feb-12 13:58N 29°50' W 092°19'3 5.4
2018-Feb-12 13:30N 29°49' W 092°16'3 6.3
2018-Feb-12 13:00N 29°47' W 092°13'3 5.4
2018-Feb-12 12:30N 29°47' W 092°10'1 2.6
2018-Feb-12 11:59N 29°47' W 092°09'3 6.5
2018-Feb-12 11:28N 29°48' W 092°05'3 6.2
2018-Feb-12 10:59N 29°49' W 092°02'2 3.8
2018-Feb-12 10:30N 29°50' W 091°60'  
Track history (hours):
 
Tides and Currents Weather Stations Pressure Air Temp Water Temp Dewpoint Dewpoint Depression Visibility Wind Speed Wind Dir Waves Ship Positions

Xavier Cenac

Owner: Cenac Marine Services LLC, Houma, LA. More information available from US FCC via Universal Licensing System and Coast Guard Vessel Documentation Center.

Last reported at 2018-Feb-20 12:15 UTC. Time now 2018-Feb-20 13:41 UTC.
Position N 29°52' W 092°23'.

Length 23 m; draft 8.6 m.

Type: Tug. MMSI: 367722660.

Date/timePositionNaut miles runAvg speedWind from/ knotsBaromVisibWave heightAir tempDewpointWater temp
2018-Feb-20 12:15N 29°52' W 092°23'2 6.4
2018-Feb-20 12:00N 29°51' W 092°22'3 6.3
2018-Feb-20 11:30N 29°50' W 092°18'2 5.0
2018-Feb-20 11:00N 29°49' W 092°16'3 5.3
2018-Feb-20 10:30N 29°47' W 092°13'2 4.9
2018-Feb-20 10:00N 29°47' W 092°11'2 3.7
2018-Feb-20 09:30N 29°47' W 092°08'3 6.6
2018-Feb-20 09:00N 29°48' W 092°05'3 6.9
2018-Feb-20 08:30N 29°49' W 092°01'  
2018-Feb-16 17:22N 29°50' W 091°58'2 4.9
2018-Feb-16 17:00N 29°50' W 091°60'3 5.4
2018-Feb-16 16:30N 29°49' W 092°03'3 5.3
2018-Feb-16 16:00N 29°48' W 092°06'3 5.4
2018-Feb-16 15:30N 29°47' W 092°09'3 6.0
2018-Feb-16 15:00N 29°47' W 092°12'1 2.8
2018-Feb-16 14:30N 29°48' W 092°14'2 4.5
2018-Feb-16 14:00N 29°49' W 092°16'3 5.3
2018-Feb-16 13:29N 29°50' W 092°18'40 4.8
2018-Feb-16 05:10N 29°56' W 093°04'1 1.2
2018-Feb-16 04:08N 29°56' W 093°06'0 0.0
2018-Feb-16 03:59N 29°56' W 093°06'0 0.0
2018-Feb-16 03:29N 29°56' W 093°06'0 0.3
2018-Feb-16 02:41N 29°56' W 093°06'1 2.8
2018-Feb-16 02:26N 29°56' W 093°07'2 4.8
2018-Feb-16 02:00N 29°56' W 093°09'2 4.8
2018-Feb-16 01:30N 29°58' W 093°11'2 5.0
2018-Feb-16 01:00N 29°60' W 093°13'2 4.4
2018-Feb-16 00:29N 30°02' W 093°14'2 4.3
2018-Feb-16 00:00N 30°03' W 093°16'2 5.0
2018-Feb-15 23:30N 30°05' W 093°17'2 3.1
2018-Feb-15 23:00N 30°06' W 093°19'3 5.4
2018-Feb-15 22:30N 30°04' W 093°21'2 4.6
2018-Feb-15 22:00N 30°04' W 093°24'3 5.5
2018-Feb-15 21:30N 30°04' W 093°27'2 4.9
2018-Feb-15 21:00N 30°04' W 093°30'3 5.4
2018-Feb-15 20:26N 30°04' W 093°34'2 4.3
2018-Feb-15 20:00N 30°04' W 093°36'3 5.6
2018-Feb-15 19:30N 30°04' W 093°39'3 5.8
2018-Feb-15 19:00N 30°03' W 093°42'3 5.1
2018-Feb-15 18:29N 30°02' W 093°44'3 5.5
2018-Feb-15 18:00N 29°60' W 093°47'2 4.4
2018-Feb-15 17:30N 29°59' W 093°49'2 4.1
2018-Feb-15 17:00N 29°58' W 093°51'2 4.2
2018-Feb-15 16:30N 29°59' W 093°53'3 6.4
2018-Feb-15 16:00N 29°60' W 093°57'1 2.9
2018-Feb-15 15:30N 30°01' W 093°58'1 1.6
2018-Feb-15 15:00N 30°01' W 093°59'0 0.0
2018-Feb-15 14:30N 30°01' W 093°59'0 0.0
2018-Feb-15 14:00N 30°01' W 093°59'0 0.0
2018-Feb-15 13:30N 30°01' W 093°59'0 0.0
2018-Feb-15 13:00N 30°01' W 093°59'0 0.0
2018-Feb-15 12:30N 30°01' W 093°59'0 0.0
2018-Feb-15 12:00N 30°01' W 093°59'0 0.0
2018-Feb-15 11:30N 30°01' W 093°59'0 0.0
2018-Feb-15 11:00N 30°01' W 093°59'0 0.0
2018-Feb-15 10:30N 30°01' W 093°59'0 0.0
2018-Feb-15 10:00N 30°01' W 093°59'0 0.0
2018-Feb-15 09:30N 30°01' W 093°59'0 0.0
2018-Feb-15 09:00N 30°01' W 093°59'0 0.0
2018-Feb-15 08:30N 30°01' W 093°59'0 0.0
2018-Feb-15 08:00N 30°01' W 093°59'0 0.0
2018-Feb-15 07:30N 30°01' W 093°59'0 0.0
2018-Feb-15 07:00N 30°01' W 093°59'0 0.0
2018-Feb-15 06:30N 30°01' W 093°59'0 0.0
2018-Feb-15 06:00N 30°01' W 093°59'0 0.0
2018-Feb-15 05:30N 30°01' W 093°59'0 0.0
2018-Feb-15 05:00N 30°01' W 093°59'0 0.0
2018-Feb-15 04:30N 30°01' W 093°59'0 0.0
2018-Feb-15 04:00N 30°01' W 093°59'0 0.0
2018-Feb-15 03:30N 30°01' W 093°59'0 0.0
2018-Feb-15 03:00N 30°01' W 093°59'0 0.0
2018-Feb-15 02:30N 30°01' W 093°59'0 0.0
2018-Feb-15 02:00N 30°01' W 093°59'0 0.0
2018-Feb-15 01:30N 30°01' W 093°59'0 0.0
2018-Feb-15 01:00N 30°01' W 093°59'0 0.0
2018-Feb-15 00:30N 30°01' W 093°59'0 0.0
2018-Feb-15 00:00N 30°01' W 093°59'0 0.0
2018-Feb-14 23:30N 30°01' W 093°59'0 0.0
2018-Feb-14 23:00N 30°01' W 093°59'0 0.0
2018-Feb-14 22:30N 30°01' W 093°59'0 0.0
2018-Feb-14 22:00N 30°01' W 093°59'0 0.0
2018-Feb-14 21:30N 30°01' W 093°59'0 0.0
2018-Feb-14 21:00N 30°01' W 093°59'0 0.0
2018-Feb-14 20:30N 30°01' W 093°59'0 0.0
2018-Feb-14 20:00N 30°01' W 093°59'0 0.0
2018-Feb-14 19:30N 30°01' W 093°59'0 0.0
2018-Feb-14 19:00N 30°01' W 093°59'0 0.0
2018-Feb-14 18:30N 30°01' W 093°59'0 0.0
2018-Feb-14 18:00N 30°01' W 093°59'0 0.1
2018-Feb-14 17:30N 30°01' W 093°59'1 1.6
2018-Feb-14 17:00N 30°01' W 093°59'0 0.0
2018-Feb-14 16:30N 30°01' W 093°59'0 0.0
2018-Feb-14 16:00N 30°01' W 093°59'0 0.0
2018-Feb-14 15:30N 30°01' W 093°59'0 0.3
2018-Feb-14 15:00N 30°01' W 093°59'0 0.1
2018-Feb-14 14:30N 30°01' W 093°59'0 0.0
2018-Feb-14 14:00N 30°01' W 093°59'0 0.0
2018-Feb-14 13:30N 30°01' W 093°59'0 0.0
2018-Feb-14 13:00N 30°01' W 093°59'0 0.0
2018-Feb-14 12:30N 30°01' W 093°59'0 0.0
2018-Feb-14 12:00N 30°01' W 093°59'0 0.0
2018-Feb-14 11:30N 30°01' W 093°59'0 0.0
2018-Feb-14 11:00N 30°01' W 093°59'0 0.0
2018-Feb-14 10:30N 30°01' W 093°59'0 0.0
2018-Feb-14 10:00N 30°01' W 093°59'0 0.0
2018-Feb-14 09:30N 30°01' W 093°59'0 0.0
2018-Feb-14 09:00N 30°01' W 093°59'0 0.0
2018-Feb-14 08:30N 30°01' W 093°59'0 0.0
2018-Feb-14 08:00N 30°01' W 093°59'0 0.0
2018-Feb-14 07:30N 30°01' W 093°59'0 0.0
2018-Feb-14 07:00N 30°01' W 093°59'0 0.0
2018-Feb-14 06:30N 30°01' W 093°59'0 0.0
2018-Feb-14 06:00N 30°01' W 093°59'0 0.0
2018-Feb-14 05:30N 30°01' W 093°59'0 0.0
2018-Feb-14 05:00N 30°01' W 093°59'0 0.0
2018-Feb-14 04:30N 30°01' W 093°59'0 0.0
2018-Feb-14 04:00N 30°01' W 093°59'0 0.0
2018-Feb-14 03:30N 30°01' W 093°59'0 0.0
2018-Feb-14 03:00N 30°01' W 093°59'0 0.0
2018-Feb-14 02:30N 30°01' W 093°59'0 0.0
2018-Feb-14 02:00N 30°01' W 093°59'0 0.0
2018-Feb-14 01:30N 30°01' W 093°59'0 0.0
2018-Feb-14 01:00N 30°01' W 093°59'0 0.0
2018-Feb-14 00:30N 30°01' W 093°59'0 0.0
2018-Feb-14 00:00N 30°01' W 093°59'0 0.0
2018-Feb-13 23:30N 30°01' W 093°59'0 0.0
2018-Feb-13 23:00N 30°01' W 093°59'0 0.0
2018-Feb-13 22:30N 30°01' W 093°59'0 0.0
2018-Feb-13 22:00N 30°01' W 093°59'0 0.0
2018-Feb-13 21:30N 30°01' W 093°59'0 0.0
2018-Feb-13 21:00N 30°01' W 093°59'0 0.0
2018-Feb-13 20:30N 30°01' W 093°59'0 0.0
2018-Feb-13 20:00N 30°01' W 093°59'0 0.0
2018-Feb-13 19:30N 30°01' W 093°59'0 0.0
2018-Feb-13 19:00N 30°01' W 093°59'0 0.0
2018-Feb-13 18:30N 30°01' W 093°59'0 0.0
2018-Feb-13 18:00N 30°01' W 093°59'0 0.0
2018-Feb-13 17:30N 30°01' W 093°59'0 0.0
2018-Feb-13 17:00N 30°01' W 093°59'0 0.0
2018-Feb-13 16:30N 30°01' W 093°59'0 0.0
2018-Feb-13 16:00N 30°01' W 093°59'0 0.0
2018-Feb-13 15:30N 30°01' W 093°59'0 0.0
2018-Feb-13 14:59N 30°01' W 093°59'0 0.0
2018-Feb-13 14:30N 30°01' W 093°59'0 0.0
2018-Feb-13 14:00N 30°01' W 093°59'0 0.0
2018-Feb-13 13:30N 30°01' W 093°59'0 0.0
2018-Feb-13 13:00N 30°01' W 093°59'0 0.0
2018-Feb-13 12:30N 30°01' W 093°59'0 0.0
2018-Feb-13 12:00N 30°01' W 093°59'0 0.0
2018-Feb-13 11:30N 30°01' W 093°59'0 0.0
2018-Feb-13 11:00N 30°01' W 093°59'0 0.0
2018-Feb-13 10:30N 30°01' W 093°59'0 0.1
2018-Feb-13 10:00N 30°01' W 093°59'0 0.0
2018-Feb-13 09:30N 30°01' W 093°59'0 0.0
2018-Feb-13 09:00N 30°01' W 093°59'0 0.5
2018-Feb-13 08:30N 30°01' W 093°59'2 3.6
2018-Feb-13 08:00N 30°01' W 093°57'3 6.5
2018-Feb-13 07:30N 29°59' W 093°54'3 6.1
2018-Feb-13 07:00N 29°58' W 093°51'3 6.5
2018-Feb-13 06:30N 29°60' W 093°47'1 2.9
2018-Feb-13 06:00N 30°00' W 093°46'0 0.4
2018-Feb-13 05:30N 30°00' W 093°46'0 0.2
2018-Feb-13 05:00N 30°00' W 093°46'3 6.9
2018-Feb-13 04:30N 30°03' W 093°44'3 6.2
2018-Feb-13 03:59N 30°04' W 093°40'4 7.8
2018-Feb-13 03:30N 30°04' W 093°36'4 7.1
2018-Feb-13 03:00N 30°04' W 093°31'3 6.2
2018-Feb-13 02:30N 30°04' W 093°28'4 7.3
2018-Feb-13 02:00N 30°04' W 093°24'3 5.2
2018-Feb-13 01:30N 30°04' W 093°21'3 5.6
2018-Feb-13 01:00N 30°06' W 093°18'2 3.3
2018-Feb-13 00:30N 30°05' W 093°17'0 0.1
2018-Feb-13 00:00N 30°05' W 093°17'0 0.0
2018-Feb-12 23:29N 30°05' W 093°17'0 0.0
2018-Feb-12 23:00N 30°05' W 093°17'0 0.7
2018-Feb-12 22:30N 30°04' W 093°16'3 6.4
2018-Feb-12 22:00N 30°02' W 093°15'4 6.9
2018-Feb-12 21:29N 29°59' W 093°12'4 6.6
2018-Feb-12 20:54N 29°56' W 093°09'41 6.4
2018-Feb-12 14:26N 29°51' W 092°22'3 5.9
2018-Feb-12 13:58N 29°50' W 092°19'3 5.4
2018-Feb-12 13:30N 29°49' W 092°16'3 6.3
2018-Feb-12 13:00N 29°47' W 092°13'3 5.4
2018-Feb-12 12:30N 29°47' W 092°10'1 2.6
2018-Feb-12 11:59N 29°47' W 092°09'3 6.5
2018-Feb-12 11:28N 29°48' W 092°05'3 6.2
2018-Feb-12 10:59N 29°49' W 092°02'2 3.8
2018-Feb-12 10:30N 29°50' W 091°60'  

Dump ship's entire track history